Relevés horaires Semmerzake (Belgique)


Relevés horaires à Semmerzake - Mercredi 16 Juin 2021
Heure UTC1 Température [°C] Vent [km/h] Hum. [%] Pres.4 [hPa] Visi. [Km] Nébu. [octa] Préc.5 [mm] Cond.
2m. Res. Ros. Dir.2 Vit. Moy. Raf.3
23:00 24.3 24.3 16.3 ESE 5.6 -- 7.4 61 1009.2(-0.9/3h) 20 -- -- --
22:00 24.4 24.4 16.5 E 3.7 -- 5.6 61 1009.8(-0.2/3h) 20 -- -- --
21:00 24.8 24.8 16.5 E 3.7 -- 5.6 60 1010.2(-0.1/3h) 19 -- -- --
20:00 25.4 25.4 16.9 NNO 1.9 -- 3.7 59 1010.1(-0.5/3h) 20 -- -- --
19:00 27.2 27.2 16.9 NNO 1.9 -- 5.6 53 1010.1(-1.0/3h) 20 -- -- --
18:00 28.5 28.5 15.8 SSE 3.7 -- 13.0 46 1010.2(-1.1/3h) 20 -- -- --
17:00 29.2 29.2 15.3 SSO 3.7 -- 9.3 43 1010.6(-1.1/3h) 20 -- -- --
16:00 29.6 29.6 15.1 SO 3.7 -- 13.0 41 1011.2(-0.8/3h) 20 -- -- --
15:00 29.4 29.4 14.3 SO 3.7 -- 11.1 40 1011.3(-1.0/3h) 20 -- -- --
14:00 28.8 28.8 14.5 O 5.6 -- 9.3 42 1011.7(-1.3/3h) 19 -- -- --
13:00 28.5 28.5 15.3 SSO 5.6 -- 9.3 45 1012.1(-1.3/3h) 20 -- -- --
12:00 27.1 27.1 15.0 SSE 5.6 -- 9.3 48 1012.5(-1.2/3h) 19 -- -- --
11:00 26.8 26.8 15.6 S 3.7 -- 7.4 50 1013.2(-0.8/3h) 20 -- -- --
10:00 25.8 25.8 15.3 NNO 1.9 -- 5.6 52 1013.3(-0.8/3h) 7 -- -- --
09:00 25.2 25.2 15.0 NNO 1.9 -- 7.4 53 1013.7(-0.8/3h) 2.7 -- -- --
08:00 22.9 22.9 14.1 NNO 3.7 -- 7.4 58 1014(-1.0/3h) 7 -- -- --
07:00 21.7 21.7 13.6 ESE 3.7 -- 5.6 60 1014.2(-0.9/3h) 19 -- -- --
06:00 19.2 19.2 13.7 NNO 1.9 -- 5.6 70 1014.7(-1.0/3h) 17 -- -- --
05:00 16.4 16.4 13.3 NNO 1.9 -- 3.7 82 1015.2(-1.1/3h) 19 -- -- --
04:00 15.9 15.9 12.0 NNO 1.9 -- 3.7 78 1015.3(-1.2/3h) 20 -- -- --
03:00 15.9 15.9 12.2 NNO 1.9 -- 5.6 79 1015.7(-1.4/3h) 17 -- -- --
02:00 16.5 16.5 12.5 NNO 1.9 -- 5.6 77 1016.3(-1.2/3h) 20 -- -- --
01:00 16.9 16.9 12.8 NNO 1.9 -- 3.7 77 1016.7(-1.3/3h) 20 -- -- --
00:00 16.5 16.5 13.4 NNO 1.9 -- 13.0 82 1017.2(-1.1/3h) 18 -- -- --

1 Coordinated Universal Time. Actuellement il est 10:00 locale et 09:00 UTC.

2 Le vent souffle depuis la direction indiquée vers la direction oposée.

3 Les rafales max. sont disponible 40 min après l'heure du relevé.

4 Pour les stations d'altitude (plus de 600m) le géopotentiel du niveau le plus proche de la pression obligatoire est indiqué.

5 Les stations disposant d'un diffuseur peuvent indiquer "trace". Cela signifie que des précipitations ont touchés le sol mais que la quantité est inférieure à 0.1 mm.

Récapitulatif de la journée
Température [°C] Vent [km/h] Ensoleillement4 [h] Precipitations totale5 [mm] Pression [Hpa]
Min1 Max.2 Moy.3 Max. Min Max.
14.9 30.2 0 13.0 0 h 0 min 0 1009.2 1017.2

1 Température minimale relevée entre 18:00 UTC la veille et 18:00 UTC le jour donné.

2 Température maximale relevée entre 06:00 UTC le jour donné et 06:00 UTC le lendemain.

3 Vent moyen de la journée basé sur les relevés horaires.

4 Ensoleillement en heures relevé entre 06:00 UTC la veille et 06:00 UTC le jour donné.

5 Précipitations totales tombées entre 06:00 UTC la jour donné et 06:00 UTC le lendemain.

Graphiques horaires